Little Creek, Delaware
Current Conditions -  °F | °C
As of 7:58 AM on Tuesday 21 Oct 2014 (Local Time) from KDOV Reporting Station
Broken Clouds Broken Clouds  
Wind Chill: 54°   Ceiling: 14000
Heat Index: 54°   Visibility: 10mi
Dew Point: 52°   Wind: 5mph
Humidity: 95%   Direction: 180°S
Pressure: 29.85"   Gusts: NA
Location:  39.17°N, 75.45°W
Report Text: KDOV 211158Z AUTO 18004KT 10SM SCT120 BKN140 12/11 A2985 RMK AO2 SLP111 60000 T01210113 10130 20117 55002
Loading
Personal Weather Stations






























Interactive Weather Map
Tropical Storm Tracking
New forecast layout! Learn more

10-Day Weather Forecast

Advertisements
Track Severe Weather on mobile